Time;durP1;ratioP1;P1;durP2;ratioP2;P2;SDS_P1;SDS_P2;PMS_P1;PMS_P2;Temp;Humidity;BMP_temperature;BMP_pressure;BME280_temperature;BME280_humidity;BME280_pressure;Samples;Min_cycle;Max_cycle;Signal;HPM_P1;HPM_P2
2024/03/25 00:01:07;;;;;;;33.30;10.70;;;;;;;15.24;53.43;100201.90;110467;1256;22326;-56
2024/03/25 00:03:33;;;;;;;25.20;9.80;;;;;;;15.24;53.48;100197.14;110610;1264;22113;-56
2024/03/25 00:06:00;;;;;;;29.70;10.90;;;;;;;15.25;53.37;100192.42;110691;1254;23163;-56
2024/03/25 00:08:27;;;;;;;24.20;10.10;;;;;;;15.25;53.46;100192.96;110639;1262;22406;-56
2024/03/25 00:10:55;;;;;;;23.60;10.30;;;;;;;15.24;53.48;100190.73;110522;1261;22341;-55
2024/03/25 00:13:22;;;;;;;27.10;11.20;;;;;;;15.23;53.48;100185.89;110480;1257;22412;-56
2024/03/25 00:15:49;;;;;;;26.70;10.50;;;;;;;15.22;53.48;100177.38;110664;1254;22212;-55
2024/03/25 00:18:16;;;;;;;21.80;9.60;;;;;;;15.18;53.48;100169.85;110625;1254;23185;-55
2024/03/25 00:20:43;;;;;;;23.50;10.10;;;;;;;15.13;53.55;100170.30;110638;1263;22323;-56
2024/03/25 00:23:11;;;;;;;26.00;10.80;;;;;;;15.07;53.61;100157.83;110665;1260;22467;-56
2024/03/25 00:25:38;;;;;;;25.90;11.10;;;;;;;15.01;53.72;100155.69;110624;1260;22449;-56
2024/03/25 00:28:05;;;;;;;36.80;11.80;;;;;;;14.96;53.89;100151.60;110406;1259;22330;-56
2024/03/25 00:30:32;;;;;;;35.90;10.90;;;;;;;14.93;54.05;100150.67;110552;1266;22909;-56
2024/03/25 00:32:58;;;;;;;29.00;10.60;;;;;;;14.92;54.11;100149.70;110678;1253;22315;-56
2024/03/25 00:35:27;;;;;;;38.80;11.70;;;;;;;14.90;54.19;100145.25;110655;1263;22107;-56
2024/03/25 00:37:53;;;;;;;34.50;10.40;;;;;;;14.90;54.12;100139.70;110453;1258;23155;-56
2024/03/25 00:40:20;;;;;;;23.50;10.50;;;;;;;14.88;54.21;100135.05;110665;1250;22120;-55
2024/03/25 00:42:47;;;;;;;23.40;10.40;;;;;;;14.87;54.33;100131.43;110627;1257;22247;-56
2024/03/25 00:45:14;;;;;;;30.40;10.30;;;;;;;14.86;54.36;100123.63;109769;1263;1002334;-56
2024/03/25 00:47:41;;;;;;;21.50;10.30;;;;;;;14.87;54.35;100121.15;110425;1266;22436;-56
2024/03/25 00:50:09;;;;;;;24.60;9.70;;;;;;;14.89;54.41;100114.77;110528;1265;22383;-56
2024/03/25 00:52:36;;;;;;;23.90;10.00;;;;;;;14.89;54.42;100113.52;110634;1253;23006;-56
2024/03/25 00:55:03;;;;;;;29.20;10.60;;;;;;;14.91;54.44;100110.98;110678;1266;22395;-56
2024/03/25 00:57:31;;;;;;;29.20;10.30;;;;;;;14.92;54.52;100100.63;109444;1269;1002515;-55
2024/03/25 00:59:57;;;;;;;28.70;11.60;;;;;;;14.94;54.51;100094.59;110634;1256;22163;-56
2024/03/25 01:02:24;;;;;;;23.30;10.10;;;;;;;14.96;54.47;100091.51;110655;1254;23199;-56
2024/03/25 01:04:51;;;;;;;17.20;9.00;;;;;;;14.97;54.49;100089.36;110702;1260;22273;-56
2024/03/25 01:07:18;;;;;;;22.00;9.60;;;;;;;14.95;54.43;100080.58;110719;1266;22280;-56
2024/03/25 01:09:44;;;;;;;27.20;10.60;;;;;;;14.92;54.46;100077.56;110692;1256;22305;-55
2024/03/25 01:12:11;;;;;;;25.10;9.50;;;;;;;14.88;54.55;100076.73;110617;1255;22089;-56
2024/03/25 01:14:38;;;;;;;20.90;9.10;;;;;;;14.84;54.53;100073.42;110662;1250;22118;-56
2024/03/25 01:17:05;;;;;;;26.40;9.60;;;;;;;14.80;54.73;100075.75;110715;1250;22307;-56
2024/03/25 01:19:32;;;;;;;25.40;9.80;;;;;;;14.76;54.84;100073.15;110427;1260;23385;-56
2024/03/25 01:21:59;;;;;;;24.70;9.00;;;;;;;14.74;54.94;100066.09;110683;1260;22094;-56
2024/03/25 01:24:25;;;;;;;23.70;9.50;;;;;;;14.72;54.98;100058.51;110660;1260;22104;-55
2024/03/25 01:26:52;;;;;;;28.40;10.30;;;;;;;14.68;55.01;100049.60;110688;1254;22293;-56
2024/03/25 01:29:19;;;;;;;26.60;9.40;;;;;;;14.66;55.17;100051.96;110426;1260;22479;-55
2024/03/25 01:31:45;;;;;;;21.50;10.20;;;;;;;14.65;55.26;100054.61;110622;1256;22265;-56
2024/03/25 01:34:12;;;;;;;33.80;11.10;;;;;;;14.64;55.31;100059.02;110642;1250;22092;-56
2024/03/25 01:36:39;;;;;;;27.90;10.60;;;;;;;14.66;55.39;100060.86;110643;1251;22296;-56
2024/03/25 01:39:06;;;;;;;29.90;11.40;;;;;;;14.69;55.38;100060.89;110748;1254;22368;-56
2024/03/25 01:41:33;;;;;;;37.70;11.00;;;;;;;14.75;55.25;100065.68;110447;1257;22297;-56
2024/03/25 01:43:59;;;;;;;29.90;11.60;;;;;;;14.80;55.33;100061.94;110688;1250;22390;-56
2024/03/25 01:46:26;;;;;;;24.20;10.70;;;;;;;14.84;55.22;100056.66;110603;1259;22493;-56
2024/03/25 01:48:53;;;;;;;29.10;11.00;;;;;;;14.87;55.15;100054.25;110437;1258;22435;-55
2024/03/25 01:51:20;;;;;;;35.80;11.90;;;;;;;14.88;54.94;100048.83;110593;1263;22103;-55
2024/03/25 01:53:47;;;;;;;23.40;9.30;;;;;;;14.86;54.96;100047.52;110606;1250;22376;-56
2024/03/25 01:56:14;;;;;;;22.00;9.80;;;;;;;14.85;55.03;100047.89;110671;1250;22167;-56
2024/03/25 01:58:41;;;;;;;30.40;11.30;;;;;;;14.85;55.00;100049.11;110418;1266;22234;-55
2024/03/25 02:01:10;;;;;;;26.00;9.80;;;;;;;14.85;54.96;100041.07;110587;1264;22294;-56
2024/03/25 02:03:37;;;;;;;26.40;10.10;;;;;;;14.85;54.89;100037.41;110598;1254;22458;-56
2024/03/25 02:06:08;;;;;;;34.00;11.70;;;;;;;14.82;54.88;100034.22;110650;1263;23308;-56
2024/03/25 02:08:35;;;;;;;26.90;10.10;;;;;;;14.81;54.92;100034.49;110404;1256;22595;-57
2024/03/25 02:11:02;;;;;;;25.10;10.20;;;;;;;14.78;54.95;100030.59;110357;1257;311389;-56
2024/03/25 02:13:29;;;;;;;28.90;10.90;;;;;;;14.77;55.05;100027.72;110655;1266;22392;-56
2024/03/25 02:15:55;;;;;;;22.10;9.10;;;;;;;14.76;54.96;100032.81;110528;1265;23121;-56
2024/03/25 02:18:23;;;;;;;25.60;10.50;;;;;;;14.74;55.11;100034.50;110623;1253;22259;-56
2024/03/25 02:20:50;;;;;;;31.80;10.10;;;;;;;14.75;55.25;100033.39;110634;1260;22425;-56
2024/03/25 02:23:17;;;;;;;28.20;10.50;;;;;;;14.78;55.14;100033.75;110683;1251;22117;-56
2024/03/25 02:25:48;;;;;;;31.30;10.60;;;;;;;14.82;55.16;100032.48;110652;1256;22147;-56
2024/03/25 02:28:15;;;;;;;20.20;9.20;;;;;;;14.87;55.18;100031.55;110642;1260;22419;-56
2024/03/25 02:30:43;;;;;;;20.40;9.00;;;;;;;14.92;55.01;100033.38;110683;1250;23225;-56
2024/03/25 02:33:09;;;;;;;22.60;8.80;;;;;;;14.95;54.98;100028.32;109890;1256;1002131;-55
2024/03/25 02:35:38;;;;;;;20.60;9.00;;;;;;;14.99;54.93;100030.40;110707;1251;22298;-57
2024/03/25 02:38:05;;;;;;;31.90;9.50;;;;;;;15.02;54.69;100027.63;110590;1256;22124;-56
2024/03/25 02:40:32;;;;;;;25.30;9.50;;;;;;;15.04;54.71;100023.50;110419;1259;22182;-56
2024/03/25 02:42:59;;;;;;;25.60;10.10;;;;;;;15.07;54.65;100024.42;110215;1272;22098;-56
2024/03/25 02:45:26;;;;;;;29.40;10.00;;;;;;;15.10;54.62;100024.41;110655;1255;22438;-56
2024/03/25 02:47:53;;;;;;;22.90;9.90;;;;;;;15.13;54.58;100020.42;110658;1264;22226;-55
2024/03/25 02:50:20;;;;;;;24.60;9.20;;;;;;;15.16;54.46;100016.08;110596;1250;22172;-56
2024/03/25 02:52:46;;;;;;;25.60;9.70;;;;;;;15.18;54.51;100017.17;110656;1250;23196;-56
2024/03/25 02:55:13;;;;;;;31.70;10.40;;;;;;;15.21;54.43;100013.54;110670;1263;22442;-56
2024/03/25 02:57:40;;;;;;;26.60;10.50;;;;;;;15.23;54.38;100009.39;110633;1250;22423;-56
2024/03/25 03:00:09;;;;;;;25.40;9.40;;;;;;;15.25;54.26;100009.27;109822;1267;1003209;-56
2024/03/25 03:02:35;;;;;;;23.70;10.70;;;;;;;15.28;54.26;100009.49;110659;1254;23132;-56
2024/03/25 03:05:03;;;;;;;33.90;11.00;;;;;;;15.30;54.14;100005.52;110659;1251;23113;-56
2024/03/25 03:07:30;;;;;;;32.50;12.00;;;;;;;15.32;54.07;100003.86;110644;1259;22402;-56
2024/03/25 03:09:57;;;;;;;41.20;12.70;;;;;;;15.35;53.92;100000.55;110632;1260;22280;-56
2024/03/25 03:12:24;;;;;;;59.80;18.50;;;;;;;15.36;53.92;100001.70;110445;1265;22496;-56
2024/03/25 03:14:51;;;;;;;62.70;18.00;;;;;;;15.36;53.90;100000.30;110206;1266;22170;-55
2024/03/25 03:17:18;;;;;;;46.10;15.10;;;;;;;15.37;53.78;99997.64;110533;1264;22287;-56
2024/03/25 03:19:45;;;;;;;51.00;16.00;;;;;;;15.38;53.76;99995.98;110658;1254;22223;-55
2024/03/25 03:22:12;;;;;;;41.80;14.70;;;;;;;15.37;53.62;99992.91;110671;1256;22104;-56
2024/03/25 03:24:39;;;;;;;43.20;13.20;;;;;;;15.49;53.44;99987.58;110677;1254;22179;-56
2024/03/25 03:27:05;;;;;;;36.80;13.80;;;;;;;15.42;53.59;99980.40;110680;1260;23021;-55
2024/03/25 03:29:32;;;;;;;40.40;13.70;;;;;;;15.38;53.60;99979.56;110646;1260;23087;-56
2024/03/25 03:31:59;;;;;;;43.70;15.00;;;;;;;15.36;53.64;99969.56;110498;1257;23134;-56
2024/03/25 03:34:26;;;;;;;41.80;13.10;;;;;;;15.32;53.62;99967.67;110509;1256;22289;-56
2024/03/25 03:36:53;;;;;;;40.20;12.90;;;;;;;15.29;53.67;99968.86;110494;1266;22474;-57
2024/03/25 03:39:20;;;;;;;36.80;12.10;;;;;;;15.27;53.69;99960.80;110582;1254;22984;-56
2024/03/25 03:41:46;;;;;;;40.00;12.80;;;;;;;15.22;53.69;99964.71;110704;1250;22328;-56
2024/03/25 03:44:15;;;;;;;31.70;10.40;;;;;;;15.20;53.76;99976.39;110641;1259;22124;-56
2024/03/25 03:46:41;;;;;;;26.40;9.20;;;;;;;15.21;53.86;99980.34;110599;1263;22443;-56
2024/03/25 03:49:08;;;;;;;23.30;9.10;;;;;;;15.23;53.89;99993.31;110422;1259;22130;-56
2024/03/25 03:51:35;;;;;;;29.20;10.30;;;;;;;15.23;53.94;100016.03;110451;1253;22337;-56
2024/03/25 03:54:01;;;;;;;30.30;11.90;;;;;;;15.26;53.84;100037.36;110642;1254;22516;-56
2024/03/25 03:56:29;;;;;;;29.30;10.60;;;;;;;15.31;53.83;100047.09;110680;1250;22266;-56
2024/03/25 03:58:55;;;;;;;34.40;11.90;;;;;;;15.34;53.84;100046.39;110577;1267;23973;-56
2024/03/25 04:01:22;;;;;;;36.10;12.00;;;;;;;15.37;53.71;100034.18;110660;1260;22163;-56
2024/03/25 04:03:49;;;;;;;32.80;10.90;;;;;;;15.38;53.66;100020.81;109922;1264;1002282;-56
2024/03/25 04:06:16;;;;;;;40.50;13.90;;;;;;;15.40;53.63;100010.91;110654;1257;23053;-55
2024/03/25 04:08:43;;;;;;;51.20;14.30;;;;;;;15.39;53.62;100014.84;110638;1259;22446;-56
2024/03/25 04:11:09;;;;;;;40.90;14.00;;;;;;;15.39;53.52;100017.44;110601;1254;23118;-56
2024/03/25 04:13:36;;;;;;;41.80;14.60;;;;;;;15.40;53.57;100014.41;110668;1253;22118;-56
2024/03/25 04:16:04;;;;;;;46.10;15.60;;;;;;;15.42;53.59;100010.83;110623;1256;22287;-56
2024/03/25 04:18:31;;;;;;;36.90;13.80;;;;;;;15.43;53.63;100000.28;110440;1259;23188;-56
2024/03/25 04:20:58;;;;;;;44.40;14.80;;;;;;;15.43;53.66;99998.91;110686;1254;22768;-56
2024/03/25 04:23:25;;;;;;;47.40;14.60;;;;;;;15.39;53.71;99990.73;110625;1260;22435;-57
2024/03/25 04:25:52;;;;;;;49.90;15.80;;;;;;;15.35;53.85;99979.91;110609;1252;22529;-56
2024/03/25 04:28:19;;;;;;;52.70;17.00;;;;;;;15.32;53.92;99969.42;110649;1260;22246;-56
2024/03/25 04:30:53;;;;;;;44.50;14.70;;;;;;;15.25;53.98;99958.06;110686;1253;22430;-56
2024/03/25 04:33:21;;;;;;;31.90;11.00;;;;;;;15.18;54.08;99960.77;110627;1250;22274;-56
2024/03/25 04:35:47;;;;;;;30.90;11.00;;;;;;;15.15;54.15;99956.20;109905;1263;1002587;-56
2024/03/25 04:38:17;;;;;;;33.30;10.20;;;;;;;15.11;54.23;99939.66;110714;1263;22361;-56
2024/03/25 04:40:44;;;;;;;19.90;8.10;;;;;;;15.02;54.39;99944.80;110663;1260;22416;-56
2024/03/25 04:43:11;;;;;;;21.20;8.70;;;;;;;15.08;54.44;99957.45;110677;1256;22161;-55
2024/03/25 04:45:37;;;;;;;22.00;9.10;;;;;;;15.01;54.68;99972.12;110595;1251;22447;-56
2024/03/25 04:48:04;;;;;;;24.30;9.60;;;;;;;15.02;54.69;99977.50;110695;1260;22441;-56
2024/03/25 04:50:31;;;;;;;17.60;7.50;;;;;;;15.03;54.72;99956.64;110659;1260;22335;-56
2024/03/25 04:52:58;;;;;;;36.60;10.70;;;;;;;15.01;54.63;99915.86;110648;1254;23121;-56
2024/03/25 04:55:25;;;;;;;29.50;11.00;;;;;;;14.93;54.80;99908.11;110415;1258;22229;-56
2024/03/25 04:57:52;;;;;;;31.90;10.30;;;;;;;14.88;55.11;99923.08;110457;1256;22379;-56
2024/03/25 05:00:18;;;;;;;25.50;10.40;;;;;;;14.89;55.26;99954.78;110648;1263;22133;-56
2024/03/25 05:02:45;;;;;;;33.10;11.70;;;;;;;14.91;55.33;99969.36;110644;1256;22110;-56
2024/03/25 05:05:12;;;;;;;28.50;10.10;;;;;;;14.94;55.47;99959.41;110651;1263;22388;-56
2024/03/25 05:07:39;;;;;;;24.80;8.80;;;;;;;14.99;55.33;99954.60;110448;1259;22351;-56
2024/03/25 05:10:06;;;;;;;28.80;9.90;;;;;;;14.99;55.35;99955.46;110617;1255;22262;-56
2024/03/25 05:12:33;;;;;;;27.90;10.70;;;;;;;15.00;55.26;99959.10;110635;1257;22319;-56
2024/03/25 05:15:00;;;;;;;21.20;8.80;;;;;;;15.02;55.42;99959.49;110445;1257;22109;-56
2024/03/25 05:17:27;;;;;;;25.80;10.00;;;;;;;15.05;55.39;99951.67;110668;1251;22596;-56
2024/03/25 05:19:53;;;;;;;20.50;8.20;;;;;;;15.04;55.40;99948.05;109880;1254;1003108;-54
2024/03/25 05:22:20;;;;;;;16.00;7.90;;;;;;;15.03;55.40;99942.52;110640;1263;23054;-53
2024/03/25 05:24:47;;;;;;;18.50;7.70;;;;;;;15.00;55.59;99948.46;110648;1254;22973;-54
2024/03/25 05:27:16;;;;;;;15.90;7.10;;;;;;;14.99;55.75;99951.61;110650;1263;22284;-54
2024/03/25 05:29:43;;;;;;;14.50;7.10;;;;;;;15.02;55.84;99956.34;110659;1256;22113;-55
2024/03/25 05:32:09;;;;;;;12.50;6.60;;;;;;;15.05;55.89;99946.43;110653;1251;22369;-56
2024/03/25 05:34:36;;;;;;;16.20;6.90;;;;;;;15.08;55.86;99932.83;110597;1257;22446;-55
2024/03/25 05:37:03;;;;;;;18.10;9.00;;;;;;;15.08;55.77;99920.40;110614;1251;22091;-56
2024/03/25 05:39:30;;;;;;;36.90;14.90;;;;;;;15.09;55.78;99907.78;110626;1263;22183;-55
2024/03/25 05:41:57;;;;;;;26.50;14.80;;;;;;;15.15;55.55;99883.31;110692;1257;22261;-55
2024/03/25 05:44:24;;;;;;;23.80;11.00;;;;;;;15.03;55.83;99873.66;110441;1259;22513;-56
2024/03/25 05:46:50;;;;;;;27.90;10.10;;;;;;;14.98;56.06;99896.65;110703;1256;22219;-55
2024/03/25 05:49:17;;;;;;;40.40;12.30;;;;;;;14.98;56.29;99888.81;110639;1256;22122;-56
2024/03/25 05:51:44;;;;;;;27.10;9.30;;;;;;;15.01;56.17;99874.14;110526;1266;22199;-55
2024/03/25 05:54:11;;;;;;;29.20;9.30;;;;;;;15.00;56.25;99865.30;110597;1255;22409;-55
2024/03/25 05:56:37;;;;;;;32.80;11.50;;;;;;;15.00;56.45;99864.61;110690;1256;22334;-55
2024/03/25 05:59:04;;;;;;;22.70;9.20;;;;;;;15.04;56.42;99865.24;110612;1267;22480;-55
2024/03/25 06:01:31;;;;;;;26.80;10.00;;;;;;;15.07;56.37;99870.52;110226;1261;22206;-57
2024/03/25 06:03:59;;;;;;;30.40;10.50;;;;;;;15.11;56.34;99869.23;110633;1263;22355;-56
2024/03/25 06:06:26;;;;;;;28.40;11.00;;;;;;;15.13;56.37;99868.80;110651;1263;22126;-56
2024/03/25 06:08:52;;;;;;;31.60;10.40;;;;;;;15.13;56.40;99872.27;110632;1260;22332;-55
2024/03/25 06:11:19;;;;;;;27.50;11.20;;;;;;;15.13;56.37;99885.01;110625;1263;22342;-56
2024/03/25 06:13:47;;;;;;;31.80;9.20;;;;;;;15.15;56.38;99901.33;110592;1256;22107;-56
2024/03/25 06:16:14;;;;;;;27.40;9.30;;;;;;;15.19;56.41;99907.75;110425;1259;22358;-56
2024/03/25 06:18:41;;;;;;;26.40;9.40;;;;;;;15.22;56.18;99900.95;110611;1256;23163;-55
2024/03/25 06:21:07;;;;;;;39.70;10.90;;;;;;;15.22;56.07;99884.35;110658;1255;22779;-56
2024/03/25 06:23:34;;;;;;;38.20;11.80;;;;;;;15.21;56.06;99873.42;110650;1254;22199;-56
2024/03/25 06:26:01;;;;;;;36.50;10.40;;;;;;;15.18;56.03;99862.02;110601;1266;23167;-54
2024/03/25 06:28:29;;;;;;;34.90;11.00;;;;;;;15.19;55.95;99848.69;110570;1272;22439;-54
2024/03/25 06:36:26;;;;;;;20.00;7.10;;;;;;;15.22;56.35;99863.23;110754;1255;22301;-54
2024/03/25 06:38:53;;;;;;;17.90;7.40;;;;;;;15.35;56.06;99865.11;110603;1274;22788;-55
2024/03/25 06:41:20;;;;;;;16.30;6.90;;;;;;;15.34;56.07;99865.51;110607;1261;22550;-54
2024/03/25 06:43:47;;;;;;;25.10;8.30;;;;;;;15.35;56.07;99862.16;110578;1274;22107;-56
2024/03/25 06:46:15;;;;;;;20.50;7.70;;;;;;;15.36;55.97;99862.41;110590;1256;22103;-54
2024/03/25 06:48:41;;;;;;;19.70;6.90;;;;;;;15.40;55.96;99864.98;110691;1250;22524;-54
2024/03/25 06:51:08;;;;;;;25.10;7.10;;;;;;;15.44;55.64;99868.45;110658;1257;22126;-54
2024/03/25 06:53:35;;;;;;;19.50;8.20;;;;;;;15.48;55.37;99870.50;110620;1257;22816;-54
2024/03/25 06:56:02;;;;;;;22.80;6.90;;;;;;;15.50;55.15;99866.38;110558;1274;23052;-53
2024/03/25 06:58:30;;;;;;;18.10;6.40;;;;;;;15.50;54.95;99857.85;110514;1257;22135;-55
2024/03/25 07:01:04;;;;;;;14.90;6.30;;;;;;;15.48;54.88;99848.34;110689;1256;22281;-55
2024/03/25 07:03:31;;;;;;;14.50;5.70;;;;;;;15.45;54.87;99846.08;110693;1254;23135;-55
2024/03/25 07:05:59;;;;;;;15.70;6.50;;;;;;;15.42;54.86;99844.27;110686;1253;22386;-56
2024/03/25 07:08:27;;;;;;;20.10;6.90;;;;;;;15.38;54.88;99843.42;110587;1261;22418;-56
2024/03/25 07:10:54;;;;;;;19.80;7.10;;;;;;;15.41;54.84;99838.39;110568;1265;22996;-55
2024/03/25 07:13:21;;;;;;;20.50;6.50;;;;;;;15.36;54.87;99835.34;110586;1263;22846;-55
2024/03/25 07:15:49;;;;;;;19.50;7.70;;;;;;;15.36;54.91;99841.63;110649;1263;22123;-55
2024/03/25 07:18:16;;;;;;;20.70;7.90;;;;;;;15.38;54.82;99834.17;110425;1270;22574;-56
2024/03/25 07:20:43;;;;;;;24.90;8.00;;;;;;;15.30;55.22;99832.20;110645;1256;22336;-56
2024/03/25 07:23:10;;;;;;;17.40;7.30;;;;;;;15.31;55.15;99823.08;110669;1256;22422;-56
2024/03/25 07:25:37;;;;;;;21.70;6.80;;;;;;;15.24;55.44;99817.52;110671;1266;22113;-55
2024/03/25 07:28:05;;;;;;;24.40;7.80;;;;;;;15.14;55.74;99824.15;110648;1260;22119;-55
2024/03/25 07:30:32;;;;;;;22.60;7.10;;;;;;;15.18;55.79;99827.11;110629;1254;22375;-55
2024/03/25 07:32:59;;;;;;;17.30;7.40;;;;;;;15.18;55.94;99827.61;110579;1274;22324;-55
2024/03/25 07:35:26;;;;;;;21.60;7.60;;;;;;;15.31;55.65;99823.05;110566;1267;22300;-55
2024/03/25 07:37:53;;;;;;;20.00;7.10;;;;;;;15.41;55.29;99818.81;110656;1267;22724;-57
2024/03/25 07:40:21;;;;;;;21.10;8.20;;;;;;;15.44;55.19;99811.99;110622;1271;23144;-55
2024/03/25 07:42:51;;;;;;;17.50;8.30;;;;;;;15.48;55.15;99810.23;110619;1271;23062;-56
2024/03/25 07:45:18;;;;;;;20.00;8.10;;;;;;;15.51;54.97;99805.19;110513;1270;22097;-55
2024/03/25 07:47:46;;;;;;;23.40;8.00;;;;;;;15.52;54.90;99801.27;110630;1267;22213;-55
2024/03/25 07:50:13;;;;;;;22.40;8.10;;;;;;;15.52;54.93;99802.85;110655;1266;23155;-55
2024/03/25 07:52:40;;;;;;;21.10;7.40;;;;;;;15.52;54.98;99792.34;110625;1274;22502;-55
2024/03/25 07:55:08;;;;;;;22.70;7.60;;;;;;;15.52;54.94;99786.07;110655;1266;22076;-55
2024/03/25 07:57:35;;;;;;;20.00;7.50;;;;;;;15.56;54.76;99779.52;110632;1266;22851;-55
2024/03/25 08:00:05;;;;;;;22.10;7.40;;;;;;;15.54;54.88;99778.44;110536;1269;22144;-55
2024/03/25 08:02:38;;;;;;;24.60;9.30;;;;;;;15.54;54.99;99775.13;110580;1274;22404;-55
2024/03/25 08:05:05;;;;;;;19.00;6.70;;;;;;;15.62;54.88;99775.68;110596;1274;22252;-55
2024/03/25 08:07:32;;;;;;;18.50;7.10;;;;;;;15.62;54.80;99773.77;110585;1274;22300;-55
2024/03/25 08:10:00;;;;;;;16.90;6.90;;;;;;;15.56;54.92;99768.84;110662;1266;22447;-54
2024/03/25 08:12:26;;;;;;;18.70;8.00;;;;;;;15.55;54.93;99765.80;110598;1267;22394;-54
2024/03/25 08:14:53;;;;;;;20.40;6.80;;;;;;;15.54;55.12;99764.78;110588;1274;22223;-54
2024/03/25 08:17:20;;;;;;;21.70;7.70;;;;;;;15.54;55.11;99762.84;110600;1271;22408;-56
2024/03/25 08:19:47;;;;;;;15.70;7.00;;;;;;;15.56;55.15;99762.61;110587;1266;22941;-54
2024/03/25 08:22:14;;;;;;;16.40;7.30;;;;;;;15.58;55.13;99756.69;109814;1266;1002117;-54
2024/03/25 08:24:41;;;;;;;19.10;8.10;;;;;;;15.63;55.03;99752.34;110607;1274;22094;-54
2024/03/25 08:27:08;;;;;;;20.00;8.10;;;;;;;15.74;54.89;99756.80;110662;1267;22400;-53
2024/03/25 08:29:35;;;;;;;23.30;8.20;;;;;;;15.70;55.18;99755.96;110287;1274;23001;-54
2024/03/25 08:32:02;;;;;;;23.20;7.70;;;;;;;15.75;55.16;99751.86;110470;1267;22382;-54
2024/03/25 08:34:29;;;;;;;16.30;7.70;;;;;;;15.80;54.99;99749.45;110423;1274;22277;-54
2024/03/25 08:36:56;;;;;;;18.70;7.90;;;;;;;15.83;54.95;99746.25;110480;1270;22409;-54
2024/03/25 08:39:23;;;;;;;21.40;8.00;;;;;;;15.88;54.83;99747.91;110624;1266;22133;-54
2024/03/25 08:41:50;;;;;;;23.30;7.50;;;;;;;15.91;54.69;99741.10;110613;1267;22347;-54
2024/03/25 08:44:17;;;;;;;24.30;8.30;;;;;;;15.93;54.57;99741.63;110490;1269;22321;-54
2024/03/25 08:46:44;;;;;;;24.70;8.40;;;;;;;15.92;54.57;99741.17;110604;1266;22335;-55
2024/03/25 08:49:10;;;;;;;17.80;8.30;;;;;;;15.88;54.53;99735.98;110583;1274;22476;-55
2024/03/25 08:51:37;;;;;;;25.80;8.30;;;;;;;15.84;54.58;99732.42;110623;1266;23149;-54
2024/03/25 08:54:04;;;;;;;25.90;8.90;;;;;;;15.80;54.60;99728.13;110543;1274;22278;-55
2024/03/25 08:56:31;;;;;;;27.10;8.40;;;;;;;15.76;54.81;99721.90;110582;1267;22428;-54
2024/03/25 08:58:58;;;;;;;27.00;8.60;;;;;;;15.73;54.83;99712.77;110402;1267;22542;-55
2024/03/25 09:01:26;;;;;;;20.50;7.70;;;;;;;15.70;54.90;99705.63;110449;1274;22342;-55
2024/03/25 09:03:52;;;;;;;21.90;7.30;;;;;;;15.68;55.09;99705.95;110585;1269;22104;-55
2024/03/25 09:06:23;;;;;;;21.90;7.60;;;;;;;15.68;55.09;99705.39;110583;1272;22442;-55
2024/03/25 09:11:36;;;;;;;18.00;7.40;;;;;;;15.62;55.21;99703.80;110600;1274;22776;-55
2024/03/25 09:14:04;;;;;;;17.60;7.90;;;;;;;15.59;55.28;99706.80;109877;1266;1002325;-55
2024/03/25 09:16:31;;;;;;;26.20;9.00;;;;;;;15.57;55.34;99707.09;110614;1271;22106;-55
2024/03/25 09:18:58;;;;;;;22.00;8.60;;;;;;;15.56;55.64;99707.34;110595;1274;22446;-55
2024/03/25 09:21:27;;;;;;;21.50;8.00;;;;;;;15.57;55.70;99706.71;110572;1274;22330;-55
2024/03/25 09:23:55;;;;;;;25.70;9.10;;;;;;;15.64;55.64;99707.05;110596;1274;22418;-56
2024/03/25 09:26:22;;;;;;;34.20;9.90;;;;;;;15.70;55.68;99703.90;110540;1274;22419;-56
2024/03/25 09:28:49;;;;;;;27.20;10.00;;;;;;;15.75;55.62;99702.86;110588;1267;22100;-55
2024/03/25 09:31:16;;;;;;;25.20;9.20;;;;;;;15.80;55.42;99701.67;110584;1273;22997;-56
2024/03/25 09:33:43;;;;;;;28.30;8.70;;;;;;;15.86;55.38;99700.11;110586;1267;22210;-55
2024/03/25 09:36:11;;;;;;;27.70;8.80;;;;;;;15.90;55.25;99692.48;110573;1267;22488;-55
2024/03/25 09:38:38;;;;;;;26.80;10.30;;;;;;;15.96;55.25;99689.71;110587;1270;22466;-56
2024/03/25 09:41:05;;;;;;;21.00;8.50;;;;;;;15.99;55.10;99687.20;110616;1275;22372;-55
2024/03/25 09:43:59;;;;;;;25.60;9.30;;;;;;;16.03;54.97;99683.67;110592;1267;22348;-55
2024/03/25 09:46:26;;;;;;;28.20;10.90;;;;;;;16.07;55.01;99683.93;109239;1275;1002334;-57
2024/03/25 09:48:53;;;;;;;24.10;8.80;;;;;;;16.10;54.98;99680.27;109975;1282;22451;-55
2024/03/25 09:51:21;;;;;;;24.50;10.80;;;;;;;16.13;54.85;99678.50;109886;1280;22158;-55
2024/03/25 09:53:47;;;;;;;25.80;9.80;;;;;;;16.15;54.98;99675.39;109963;1276;22239;-55
2024/03/25 09:56:15;;;;;;;32.20;10.40;;;;;;;16.18;54.91;99676.45;109202;1282;1002322;-56
2024/03/25 09:58:44;;;;;;;38.00;11.50;;;;;;;16.21;54.93;99668.02;109912;1275;22147;-55
2024/03/25 10:01:11;;;;;;;30.80;11.60;;;;;;;16.25;54.85;99668.82;109980;1282;22408;-55
2024/03/25 10:03:37;;;;;;;39.00;12.30;;;;;;;16.36;54.56;99672.57;109973;1278;22211;-55
2024/03/25 10:06:04;;;;;;;37.80;12.60;;;;;;;16.32;54.67;99671.22;109961;1282;22424;-56
2024/03/25 10:08:32;;;;;;;32.80;11.40;;;;;;;16.34;54.69;99673.71;109957;1282;22750;-56
2024/03/25 10:10:59;;;;;;;35.40;12.90;;;;;;;16.38;54.54;99675.56;110021;1275;22394;-55
2024/03/25 10:13:26;;;;;;;29.50;11.60;;;;;;;16.39;54.47;99678.14;109976;1275;22167;-55
2024/03/25 10:15:54;;;;;;;29.30;10.60;;;;;;;16.40;54.39;99677.20;109975;1279;22329;-54
2024/03/25 10:18:22;;;;;;;22.10;10.50;;;;;;;16.40;54.39;99686.59;109992;1275;22158;-54
2024/03/25 10:20:50;;;;;;;10.00;4.50;;;;;;;16.40;54.07;99693.83;109849;1282;22237;-54
2024/03/25 10:23:21;;;;;;;3.30;2.00;;;;;;;16.32;52.83;99690.10;110301;1274;22985;-54
2024/03/25 10:25:48;;;;;;;1.20;1.00;;;;;;;16.08;51.87;99688.60;110566;1272;22258;-54
2024/03/25 10:28:15;;;;;;;2.60;1.10;;;;;;;15.77;51.46;99691.58;110588;1274;22421;-55
2024/03/25 10:30:42;;;;;;;0.70;0.70;;;;;;;15.39;51.66;99693.29;110591;1267;22750;-54
2024/03/25 10:33:09;;;;;;;1.10;0.70;;;;;;;15.07;52.21;99693.19;110586;1271;22339;-54
2024/03/25 10:35:37;;;;;;;0.40;0.40;;;;;;;14.88;52.59;99693.12;110595;1272;22127;-54
2024/03/25 10:38:05;;;;;;;0.70;0.50;;;;;;;14.66;52.50;99684.02;110410;1267;22431;-54
2024/03/25 10:40:33;;;;;;;0.60;0.40;;;;;;;14.41;52.93;99678.25;110642;1270;22269;-55
2024/03/25 10:43:08;;;;;;;1.20;0.40;;;;;;;14.19;53.51;99671.94;110428;1267;22106;-55
2024/03/25 10:45:35;;;;;;;0.40;0.40;;;;;;;13.96;53.93;99668.79;110567;1274;23121;-55
2024/03/25 10:48:14;;;;;;;0.50;0.50;;;;;;;13.81;54.62;99673.08;110386;1274;22380;-55
2024/03/25 10:50:43;;;;;;;0.80;0.70;;;;;;;13.65;54.83;99667.14;110572;1274;22145;-55
2024/03/25 10:53:12;;;;;;;0.60;0.60;;;;;;;13.51;55.05;99662.09;110586;1266;22439;-55
2024/03/25 10:55:39;;;;;;;2.00;0.70;;;;;;;13.36;55.26;99663.20;110594;1274;22853;-55
2024/03/25 10:58:07;;;;;;;0.90;0.60;;;;;;;13.20;55.60;99655.52;110584;1272;22433;-55
2024/03/25 11:00:34;;;;;;;0.70;0.40;;;;;;;13.07;56.04;99662.72;110616;1267;22300;-55
2024/03/25 11:03:02;;;;;;;0.50;0.40;;;;;;;13.01;56.29;99653.73;110610;1274;23068;-55
2024/03/25 11:05:29;;;;;;;1.20;0.30;;;;;;;12.98;56.49;99644.70;110647;1266;22532;-55
2024/03/25 11:07:56;;;;;;;0.70;0.50;;;;;;;12.92;56.58;99641.33;110412;1274;22149;-55
2024/03/25 11:10:29;;;;;;;0.60;0.60;;;;;;;12.85;56.59;99634.90;110648;1267;23140;-55
2024/03/25 11:12:56;;;;;;;0.50;0.40;;;;;;;12.79;56.70;99633.29;110603;1270;23308;-55
2024/03/25 11:15:23;;;;;;;0.50;0.40;;;;;;;12.75;56.75;99625.49;110594;1270;22091;-56
2024/03/25 11:17:49;;;;;;;0.80;0.50;;;;;;;12.71;56.85;99631.41;109812;1273;1002521;-55
2024/03/25 11:20:17;;;;;;;0.60;0.30;;;;;;;12.68;56.87;99623.73;110653;1267;22370;-55